createdAt,value
2018-06-22T00:02:30.332Z,1.50
2018-06-22T00:07:59.599Z,1.85
2018-06-22T00:13:28.841Z,1.35
2018-06-22T00:18:58.072Z,1.47
2018-06-22T00:24:27.376Z,1.27
2018-06-22T00:29:57.842Z,1.57
2018-06-22T00:35:27.052Z,1.70
2018-06-22T00:40:56.828Z,3.15
2018-06-22T00:46:26.017Z,1.35
2018-06-22T00:51:55.265Z,3.95
2018-06-22T00:57:25.144Z,2.70
2018-06-22T01:02:55.159Z,1.40
2018-06-22T01:08:24.697Z,1.77
2018-06-22T01:13:54.898Z,2.40
2018-06-22T01:19:24.939Z,1.17
2018-06-22T01:24:54.201Z,1.42
2018-06-22T01:30:24.324Z,1.98
2018-06-22T01:35:53.565Z,1.10
2018-06-22T01:41:22.908Z,1.77
2018-06-22T01:46:52.964Z,1.65
2018-06-22T01:52:22.671Z,1.80
2018-06-22T01:57:51.923Z,1.27
2018-06-22T02:03:22.252Z,1.90
2018-06-22T02:08:52.368Z,1.75
2018-06-22T02:14:21.751Z,1.27
2018-06-22T02:19:51.023Z,1.52
2018-06-22T02:25:20.266Z,1.27
2018-06-22T02:30:49.535Z,1.40
2018-06-22T02:36:19.512Z,1.80
2018-06-22T02:41:49.950Z,2.27
2018-06-22T02:47:19.787Z,1.50
2018-06-22T02:52:49.572Z,1.40
2018-06-22T02:58:20.140Z,1.67
2018-06-22T03:03:49.723Z,1.50
2018-06-22T03:09:19.480Z,1.70
2018-06-22T03:14:49.451Z,1.70
2018-06-22T03:20:19.466Z,1.40
2018-06-22T03:25:49.298Z,1.75
2018-06-22T03:31:21.318Z,1.87
2018-06-22T03:36:51.352Z,1.72
2018-06-22T03:42:21.449Z,1.95
2018-06-22T03:48:02.575Z,1.72
2018-06-22T03:53:32.321Z,1.37
2018-06-22T03:59:01.238Z,1.85
2018-06-22T04:04:30.532Z,1.40
2018-06-22T04:09:59.793Z,1.75
2018-06-22T04:15:28.997Z,2.47
2018-06-22T04:20:58.242Z,1.72
2018-06-22T04:26:27.457Z,1.70
2018-06-22T04:31:56.701Z,1.70
2018-06-22T04:37:25.912Z,2.22
2018-06-22T04:42:55.215Z,1.82
2018-06-22T04:48:24.649Z,1.70
2018-06-22T04:53:53.909Z,1.75
2018-06-22T04:59:24.152Z,2.33
2018-06-22T05:04:53.804Z,1.72
2018-06-22T05:10:22.979Z,1.70
2018-06-22T05:15:52.685Z,2.00
2018-06-22T05:21:21.887Z,1.98
2018-06-22T05:26:51.297Z,2.17
2018-06-22T05:32:21.390Z,1.82
2018-06-22T05:37:51.758Z,1.77
2018-06-22T05:43:22.092Z,2.12
2018-06-22T05:48:52.214Z,1.90
2018-06-22T05:54:22.941Z,2.00
2018-06-22T05:59:52.395Z,1.80
2018-06-22T06:05:22.181Z,1.50
2018-06-22T06:10:51.615Z,2.10
2018-06-22T06:16:22.012Z,1.52
2018-06-22T06:21:52.265Z,2.25
2018-06-22T06:27:23.116Z,2.42
2018-06-22T06:32:52.894Z,2.17
2018-06-22T06:38:23.845Z,1.52
2018-06-22T06:43:54.219Z,1.72
2018-06-22T06:49:25.061Z,2.10
2018-06-22T06:54:54.515Z,1.82
2018-06-22T07:00:23.756Z,1.42
2018-06-22T07:05:53.381Z,1.95
2018-06-22T07:11:22.731Z,1.90
2018-06-22T07:16:52.753Z,1.70
2018-06-22T07:22:21.993Z,2.17
2018-06-22T07:27:52.290Z,1.67
2018-06-22T07:33:21.596Z,1.55
2018-06-22T07:38:51.902Z,2.00
2018-06-22T07:44:22.043Z,1.95
2018-06-22T07:49:51.998Z,2.00
2018-06-22T07:55:25.049Z,2.15
2018-06-22T08:00:54.040Z,1.80
2018-06-22T08:06:23.553Z,2.12
2018-06-22T08:11:53.434Z,1.95
2018-06-22T08:17:23.072Z,2.22
2018-06-22T08:22:52.493Z,1.82
2018-06-22T08:28:21.951Z,1.60
2018-06-22T08:33:51.264Z,2.08
2018-06-22T08:39:20.594Z,2.37
2018-06-22T08:44:51.279Z,1.60
2018-06-22T08:50:22.289Z,1.77
2018-06-22T08:55:52.488Z,1.90
2018-06-22T09:01:21.919Z,2.20
2018-06-22T09:06:51.591Z,1.82
2018-06-22T09:12:21.792Z,2.30
2018-06-22T09:17:52.728Z,2.00
2018-06-22T09:23:22.117Z,1.60
2018-06-22T09:28:52.091Z,1.75
2018-06-22T09:34:21.990Z,1.87
2018-06-22T09:39:51.544Z,1.77
2018-06-22T09:45:21.858Z,1.82
2018-06-22T09:50:51.230Z,2.30
2018-06-22T09:56:21.493Z,1.95
2018-06-22T10:01:53.331Z,2.20
2018-06-22T10:07:24.115Z,1.75
2018-06-22T10:12:53.622Z,1.90
2018-06-22T10:18:25.989Z,2.10
2018-06-22T10:23:55.205Z,1.98
2018-06-22T10:29:24.563Z,1.85
2018-06-22T10:34:54.077Z,1.60
2018-06-22T10:40:24.527Z,2.15
2018-06-22T10:45:53.800Z,2.00
2018-06-22T10:51:24.491Z,1.80
2018-06-22T10:56:53.620Z,1.80
2018-06-22T11:02:25.463Z,1.70
2018-06-22T11:07:54.765Z,1.62
2018-06-22T11:13:24.045Z,1.90
2018-06-22T11:18:53.355Z,2.12
2018-06-22T11:24:22.664Z,1.95
2018-06-22T11:29:52.737Z,1.92
2018-06-22T11:35:22.281Z,2.35
2018-06-22T11:40:52.159Z,2.50
2018-06-22T11:46:21.965Z,1.92
2018-06-22T11:51:53.220Z,2.12
2018-06-22T11:57:24.623Z,2.40
2018-06-22T12:02:54.038Z,2.17
2018-06-22T12:08:26.590Z,2.67
2018-06-22T12:13:57.012Z,2.22
2018-06-22T12:19:26.371Z,1.70
2018-06-22T12:24:55.486Z,1.95
2018-06-22T12:30:25.423Z,2.00
2018-06-22T12:35:55.106Z,1.52
2018-06-22T12:41:24.530Z,1.40
2018-06-22T12:46:55.061Z,1.60
2018-06-22T12:52:25.129Z,1.70
2018-06-22T12:57:54.976Z,1.40
2018-06-22T13:03:24.153Z,1.45
2018-06-22T13:08:54.370Z,2.47
2018-06-22T13:14:24.397Z,1.10
2018-06-22T13:19:53.733Z,1.17
2018-06-22T13:25:22.964Z,1.72
2018-06-22T13:30:52.178Z,1.62
2018-06-22T13:36:21.400Z,1.30
2018-06-22T13:41:50.672Z,1.32
2018-06-22T13:47:19.937Z,1.57
2018-06-22T13:52:49.139Z,1.35
2018-06-22T13:58:18.381Z,1.20
2018-06-22T14:03:52.909Z,1.35
2018-06-22T14:09:22.189Z,1.10
2018-06-22T14:14:51.388Z,1.10
2018-06-22T14:20:20.621Z,1.30
2018-06-22T14:25:49.933Z,1.10
2018-06-22T14:31:19.156Z,1.25
2018-06-22T14:36:48.626Z,1.25
2018-06-22T14:42:17.863Z,1.20
2018-06-22T14:47:47.178Z,1.15
2018-06-22T14:53:21.654Z,1.20
2018-06-22T14:58:56.093Z,1.37
2018-06-22T15:04:30.565Z,1.55
2018-06-22T15:09:59.903Z,1.35
2018-06-22T15:15:29.142Z,1.40
2018-06-22T15:20:58.392Z,1.40
2018-06-22T15:26:27.712Z,1.20
2018-06-22T15:31:56.948Z,1.62
2018-06-22T15:37:31.547Z,1.67
2018-06-22T15:43:05.824Z,0.93
2018-06-22T15:48:48.685Z,1.32
2018-06-22T15:54:23.223Z,0.95
2018-06-22T15:59:52.472Z,1.27
2018-06-22T16:05:21.671Z,1.37
2018-06-22T16:10:50.909Z,1.07
2018-06-22T16:16:25.416Z,1.22
2018-06-22T16:23:10.386Z,1.00
2018-06-22T16:28:39.768Z,0.90
2018-06-22T16:34:09.160Z,1.20
2018-06-22T16:39:38.476Z,1.47
2018-06-22T16:45:08.027Z,1.30
2018-06-22T16:50:37.336Z,1.00
2018-06-22T16:56:07.245Z,1.67
2018-06-22T17:01:37.920Z,1.22
2018-06-22T17:07:12.534Z,1.20
2018-06-22T17:12:47.014Z,1.50
2018-06-22T17:18:21.552Z,3.40
2018-06-22T17:23:50.876Z,1.70
2018-06-22T17:29:20.170Z,1.50
2018-06-22T17:34:49.376Z,1.10
2018-06-22T17:40:18.592Z,1.30
2018-06-22T17:45:47.819Z,1.00
2018-06-22T17:51:17.138Z,1.45
2018-06-22T17:56:46.430Z,1.00
2018-06-22T18:02:20.981Z,1.10
2018-06-22T18:07:50.410Z,1.27
2018-06-22T18:13:19.672Z,1.10
2018-06-22T18:18:48.891Z,1.27
2018-06-22T18:24:18.151Z,1.52
2018-06-22T18:29:47.571Z,1.37
2018-06-22T18:35:18.440Z,1.10
2018-06-22T18:40:47.700Z,1.50
2018-06-22T18:46:17.057Z,1.30
2018-06-22T18:51:46.548Z,1.12
2018-06-22T18:59:26.293Z,1.30
2018-06-22T19:04:55.615Z,1.62
2018-06-22T19:10:24.875Z,1.22
2018-06-22T19:15:54.101Z,1.20
2018-06-22T19:21:23.361Z,1.12
2018-06-22T19:26:52.586Z,1.42
2018-06-22T19:32:21.972Z,1.30
2018-06-22T19:37:51.190Z,1.35
2018-06-22T19:44:25.419Z,1.55
2018-06-22T19:49:59.992Z,1.27
2018-06-22T19:55:29.238Z,1.72
2018-06-22T20:00:58.497Z,1.60
2018-06-22T20:06:27.758Z,1.60
2018-06-22T20:11:57.040Z,1.67
2018-06-22T20:17:26.389Z,1.60
2018-06-22T20:22:55.659Z,1.50
2018-06-22T20:28:24.922Z,1.72
2018-06-22T20:33:54.082Z,1.60
2018-06-22T20:39:28.429Z,1.50
2018-06-22T20:45:03.007Z,1.57
2018-06-22T20:50:37.560Z,2.02
2018-06-22T20:56:06.843Z,1.80
2018-06-22T21:01:36.059Z,2.17
2018-06-22T21:07:05.475Z,2.02
2018-06-22T21:12:40.413Z,2.37
2018-06-22T21:18:03.940Z,2.52
2018-06-22T21:23:33.266Z,2.00
2018-06-22T21:29:07.687Z,3.00
2018-06-22T21:34:41.073Z,2.60
2018-06-22T21:40:10.261Z,2.17
2018-06-22T21:45:39.628Z,2.70
2018-06-22T21:51:08.880Z,2.45
2018-06-22T21:56:38.149Z,2.98
2018-06-22T22:02:07.585Z,2.90
2018-06-22T22:07:36.783Z,2.50
2018-06-22T22:13:06.055Z,2.90
2018-06-22T22:18:35.406Z,2.77
2018-06-22T22:24:04.757Z,2.90
2018-06-22T22:29:34.050Z,3.20
2018-06-22T22:35:03.347Z,3.10
2018-06-22T22:40:32.604Z,2.60
2018-06-22T22:46:01.835Z,4.03
2018-06-22T22:51:31.089Z,3.37
2018-06-22T22:57:00.332Z,2.65
2018-06-22T23:02:29.528Z,2.87
2018-06-22T23:07:58.780Z,2.90
2018-06-22T23:13:28.099Z,3.40
2018-06-22T23:18:57.332Z,3.50
2018-06-22T23:24:26.740Z,2.80
2018-06-22T23:29:55.973Z,3.45
2018-06-22T23:35:26.227Z,2.70
2018-06-22T23:40:55.820Z,3.72
2018-06-22T23:46:24.983Z,3.25
2018-06-22T23:51:54.215Z,3.35
2018-06-22T23:57:23.446Z,2.83
